createdAt,value
2019-03-10T00:02:33.469Z,7.20
2019-03-10T00:05:05.374Z,7.63
2019-03-10T00:07:36.017Z,7.23
2019-03-10T00:10:07.407Z,7.20
2019-03-10T00:12:40.381Z,6.87
2019-03-10T00:15:11.495Z,7.23
2019-03-10T00:17:43.688Z,6.13
2019-03-10T00:20:14.781Z,5.77
2019-03-10T00:22:45.046Z,6.60
2019-03-10T00:25:15.275Z,7.17
2019-03-10T00:27:45.315Z,5.73
2019-03-10T00:30:14.833Z,6.33
2019-03-10T00:32:44.115Z,6.93
2019-03-10T00:35:13.725Z,6.80
2019-03-10T00:37:43.235Z,6.63
2019-03-10T00:41:00.900Z,7.47
2019-03-10T00:44:35.301Z,6.23
2019-03-10T00:47:51.533Z,6.23
2019-03-10T00:51:01.599Z,5.67
2019-03-10T00:53:30.895Z,6.07
2019-03-10T00:56:00.280Z,6.10
2019-03-10T00:58:29.632Z,6.57
2019-03-10T01:00:59.000Z,7.03
2019-03-10T01:03:28.295Z,5.60
2019-03-10T01:05:57.847Z,5.73
2019-03-10T01:08:27.171Z,5.70
2019-03-10T01:10:56.727Z,6.37
2019-03-10T01:13:26.283Z,6.30
2019-03-10T01:15:56.749Z,6.57
2019-03-10T01:18:27.603Z,5.53
2019-03-10T01:20:58.580Z,5.33
2019-03-10T01:23:27.888Z,5.13
2019-03-10T01:25:57.195Z,4.97
2019-03-10T01:28:26.471Z,6.40
2019-03-10T01:31:11.343Z,5.40
2019-03-10T01:34:07.578Z,6.07
2019-03-10T01:36:38.571Z,5.70
2019-03-10T01:39:09.554Z,5.80
2019-03-10T01:41:38.816Z,5.80
2019-03-10T01:44:08.129Z,5.57
2019-03-10T01:46:37.528Z,6.13
2019-03-10T01:49:06.845Z,5.63
2019-03-10T01:51:36.142Z,5.63
2019-03-10T01:54:05.631Z,6.27
2019-03-10T01:56:34.975Z,5.20
2019-03-10T01:59:04.535Z,5.97
2019-03-10T02:01:33.816Z,6.07
2019-03-10T02:04:03.104Z,5.83
2019-03-10T02:06:32.438Z,5.17
2019-03-10T02:09:01.881Z,6.20
2019-03-10T02:11:31.423Z,5.70
2019-03-10T02:14:00.875Z,5.37
2019-03-10T02:16:30.349Z,6.33
2019-03-10T02:18:59.945Z,4.50
2019-03-10T02:21:29.204Z,4.73
2019-03-10T02:23:58.492Z,4.83
2019-03-10T02:26:27.786Z,5.63
2019-03-10T02:28:57.063Z,4.87
2019-03-10T02:31:26.628Z,4.80
2019-03-10T02:33:56.259Z,5.50
2019-03-10T02:36:25.616Z,6.13
2019-03-10T02:38:55.172Z,5.50
2019-03-10T02:41:24.708Z,5.70
2019-03-10T02:43:54.060Z,5.23
2019-03-10T02:46:23.647Z,5.47
2019-03-10T02:48:53.366Z,5.43
2019-03-10T02:51:23.517Z,5.70
2019-03-10T02:53:52.810Z,5.20
2019-03-10T02:56:22.085Z,5.73
2019-03-10T02:58:51.820Z,5.20
2019-03-10T03:01:21.098Z,6.27
2019-03-10T03:03:50.411Z,4.80
2019-03-10T03:06:19.994Z,5.70
2019-03-10T03:08:49.815Z,6.20
2019-03-10T03:11:19.149Z,6.50
2019-03-10T03:13:48.861Z,5.30
2019-03-10T03:16:18.134Z,5.63
2019-03-10T03:18:53.506Z,5.20
2019-03-10T03:21:23.104Z,5.30
2019-03-10T03:23:52.684Z,5.10
2019-03-10T03:26:22.267Z,5.10
2019-03-10T03:28:51.543Z,5.03
2019-03-10T03:31:21.280Z,4.30
2019-03-10T03:33:52.242Z,3.97
2019-03-10T03:36:31.160Z,4.37
2019-03-10T03:39:24.553Z,4.20
2019-03-10T03:41:54.192Z,3.70
2019-03-10T03:44:23.480Z,4.07
2019-03-10T03:46:52.761Z,3.67
2019-03-10T03:49:22.184Z,2.57
2019-03-10T03:51:51.636Z,3.00
2019-03-10T03:54:20.968Z,2.80
2019-03-10T03:56:50.673Z,2.60
2019-03-10T03:59:20.247Z,2.60
2019-03-10T04:01:59.428Z,2.87
2019-03-10T04:04:28.942Z,2.40
2019-03-10T04:06:58.237Z,2.67
2019-03-10T04:09:27.533Z,2.50
2019-03-10T04:11:56.910Z,2.53
2019-03-10T04:14:26.477Z,3.67
2019-03-10T04:16:55.823Z,2.23
2019-03-10T04:19:25.377Z,3.00
2019-03-10T04:21:54.804Z,2.50
2019-03-10T04:24:24.454Z,2.63
2019-03-10T04:26:53.763Z,2.30
2019-03-10T04:29:23.030Z,2.00
2019-03-10T04:31:52.587Z,2.90
2019-03-10T04:34:21.888Z,2.80
2019-03-10T04:36:51.163Z,3.03
2019-03-10T04:39:20.461Z,2.93
2019-03-10T04:41:50.048Z,2.63
2019-03-10T04:44:19.746Z,2.57
2019-03-10T04:46:49.048Z,2.27
2019-03-10T04:49:18.606Z,3.10
2019-03-10T04:51:48.014Z,2.70
2019-03-10T04:54:20.207Z,3.10
2019-03-10T04:56:53.695Z,2.80
2019-03-10T04:59:22.970Z,3.50
2019-03-10T05:01:52.268Z,2.67
2019-03-10T05:04:21.596Z,3.30
2019-03-10T05:06:51.199Z,3.73
2019-03-10T05:09:20.483Z,2.37
2019-03-10T05:11:49.967Z,3.10
2019-03-10T05:14:19.627Z,3.07
2019-03-10T05:16:49.180Z,2.93
2019-03-10T05:19:18.586Z,3.43
2019-03-10T05:21:47.950Z,3.10
2019-03-10T05:24:17.240Z,2.80
2019-03-10T05:26:46.818Z,3.13
2019-03-10T05:29:16.099Z,3.27
2019-03-10T05:31:45.448Z,2.90
2019-03-10T05:34:15.042Z,3.27
2019-03-10T05:36:44.608Z,2.63
2019-03-10T05:39:14.233Z,3.23
2019-03-10T05:41:43.524Z,3.70
2019-03-10T05:44:13.055Z,2.77
2019-03-10T05:46:42.970Z,2.47
2019-03-10T05:49:12.257Z,3.27
2019-03-10T05:51:41.569Z,2.77
2019-03-10T05:54:10.843Z,2.73
2019-03-10T05:56:40.394Z,3.17
2019-03-10T05:59:09.669Z,2.97
2019-03-10T06:01:38.930Z,3.17
2019-03-10T06:04:08.310Z,3.07
2019-03-10T06:06:37.587Z,2.50
2019-03-10T06:09:07.916Z,3.00
2019-03-10T06:11:37.467Z,2.93
2019-03-10T06:14:06.730Z,2.57
2019-03-10T06:16:36.027Z,2.17
2019-03-10T06:19:05.583Z,2.53
2019-03-10T06:21:34.836Z,2.63
2019-03-10T06:24:04.159Z,2.33
2019-03-10T06:26:33.784Z,2.67
2019-03-10T06:29:03.115Z,2.67
2019-03-10T06:31:32.503Z,2.70
2019-03-10T06:34:02.119Z,2.87
2019-03-10T06:36:31.439Z,3.30
2019-03-10T06:39:00.711Z,2.83
2019-03-10T06:41:30.280Z,2.83
2019-03-10T06:43:59.571Z,2.97
2019-03-10T06:46:28.925Z,2.67
2019-03-10T06:48:58.610Z,2.83
2019-03-10T06:51:27.940Z,2.87
2019-03-10T06:53:57.853Z,2.90
2019-03-10T06:56:27.222Z,2.60
2019-03-10T06:58:56.591Z,2.50
2019-03-10T07:01:25.859Z,2.93
2019-03-10T07:03:55.140Z,2.20
2019-03-10T07:06:24.442Z,2.73
2019-03-10T07:08:53.795Z,3.07
2019-03-10T07:11:23.361Z,3.10
2019-03-10T07:13:52.685Z,2.60
2019-03-10T07:16:21.991Z,3.00
2019-03-10T07:18:51.561Z,2.77
2019-03-10T07:21:20.976Z,3.00
2019-03-10T07:23:50.253Z,2.60
2019-03-10T07:26:19.903Z,3.27
2019-03-10T07:29:10.994Z,3.87
2019-03-10T07:32:05.135Z,3.40
2019-03-10T07:34:56.623Z,2.67
2019-03-10T07:37:44.251Z,2.70
2019-03-10T07:40:37.835Z,2.67
2019-03-10T07:43:32.340Z,3.60
2019-03-10T07:46:20.185Z,3.00
2019-03-10T07:49:21.509Z,2.87
2019-03-10T07:52:20.192Z,2.77
2019-03-10T07:55:05.833Z,2.63
2019-03-10T07:57:52.624Z,3.10
2019-03-10T08:00:45.106Z,2.70
2019-03-10T08:03:36.687Z,7.33
2019-03-10T08:06:18.013Z,3.37
2019-03-10T08:09:07.977Z,2.87
2019-03-10T08:11:54.918Z,3.00
2019-03-10T08:14:49.735Z,3.57
2019-03-10T08:17:25.593Z,2.67
2019-03-10T08:20:05.198Z,3.30
2019-03-10T08:22:46.507Z,3.37
2019-03-10T08:25:41.205Z,4.17
2019-03-10T08:28:23.172Z,3.37
2019-03-10T08:31:30.311Z,2.93
2019-03-10T08:34:16.942Z,3.97
2019-03-10T08:36:52.300Z,3.57
2019-03-10T08:39:40.959Z,3.60
2019-03-10T08:42:34.803Z,3.03
2019-03-10T08:45:34.819Z,3.13
2019-03-10T08:48:22.567Z,2.97
2019-03-10T08:51:13.914Z,3.33
2019-03-10T08:53:48.479Z,2.87
2019-03-10T08:56:45.394Z,3.37
2019-03-10T08:59:39.474Z,3.00
2019-03-10T09:02:42.299Z,3.33
2019-03-10T09:05:35.839Z,2.20
2019-03-10T09:08:21.721Z,2.03
2019-03-10T09:10:59.559Z,2.00
2019-03-10T09:13:47.557Z,1.87
2019-03-10T09:16:34.425Z,1.47
2019-03-10T09:19:14.789Z,1.30
2019-03-10T09:22:06.505Z,1.40
2019-03-10T09:24:52.706Z,1.40
2019-03-10T09:27:38.971Z,1.30
2019-03-10T09:30:16.284Z,1.23
2019-03-10T09:33:04.018Z,1.40
2019-03-10T09:36:01.052Z,1.23
2019-03-10T09:38:36.802Z,1.30
2019-03-10T09:41:24.835Z,1.10
2019-03-10T09:44:18.728Z,1.57
2019-03-10T09:47:06.420Z,1.17
2019-03-10T09:50:00.312Z,0.97
2019-03-10T09:52:46.539Z,1.10
2019-03-10T09:55:46.227Z,1.40
2019-03-10T09:58:22.760Z,1.20
2019-03-10T10:01:09.274Z,1.60
2019-03-10T10:03:56.799Z,1.60
2019-03-10T10:06:59.497Z,1.60
2019-03-10T10:09:40.233Z,1.80
2019-03-10T10:12:19.407Z,1.33
2019-03-10T10:15:05.951Z,1.10
2019-03-10T10:17:45.642Z,1.70
2019-03-10T10:20:36.469Z,1.80
2019-03-10T10:23:21.212Z,1.80
2019-03-10T10:26:10.966Z,1.73
2019-03-10T10:29:01.126Z,2.03
2019-03-10T10:31:46.499Z,2.30
2019-03-10T10:34:20.510Z,1.70
2019-03-10T10:37:08.230Z,1.90
2019-03-10T10:39:54.544Z,1.97
2019-03-10T10:42:45.415Z,2.03
2019-03-10T10:45:25.502Z,2.20
2019-03-10T10:48:26.236Z,2.33
2019-03-10T10:51:12.958Z,2.27
2019-03-10T10:54:00.970Z,2.30
2019-03-10T10:56:38.243Z,1.90
2019-03-10T10:59:15.658Z,2.67
2019-03-10T11:02:06.056Z,2.17
2019-03-10T11:04:45.855Z,2.50
2019-03-10T11:07:30.250Z,2.60
2019-03-10T11:10:24.096Z,2.97
2019-03-10T11:13:21.223Z,2.53
2019-03-10T11:16:21.484Z,2.23
2019-03-10T11:19:08.173Z,2.53
2019-03-10T11:21:53.835Z,2.43
2019-03-10T11:24:42.078Z,2.70
2019-03-10T11:27:21.602Z,2.93
2019-03-10T11:30:08.871Z,2.57
2019-03-10T11:33:00.662Z,2.80
2019-03-10T11:35:36.076Z,3.30
2019-03-10T11:38:30.345Z,2.53
2019-03-10T11:41:09.607Z,2.73
2019-03-10T11:44:10.517Z,2.37
2019-03-10T11:47:01.568Z,2.40
2019-03-10T11:49:47.293Z,2.40
2019-03-10T11:52:24.979Z,2.40
2019-03-10T11:55:12.803Z,3.47
2019-03-10T11:57:57.364Z,2.63
2019-03-10T12:00:31.155Z,3.03
2019-03-10T12:03:18.048Z,3.50
2019-03-10T12:06:07.168Z,2.90
2019-03-10T12:08:45.115Z,2.90
2019-03-10T12:11:14.447Z,2.83
2019-03-10T12:13:44.024Z,3.10
2019-03-10T12:16:13.630Z,3.47
2019-03-10T12:18:42.902Z,3.87
2019-03-10T12:21:12.455Z,3.77
2019-03-10T12:23:41.799Z,3.23
2019-03-10T12:26:11.093Z,2.73
2019-03-10T12:28:41.719Z,3.13
2019-03-10T12:31:11.076Z,3.00
2019-03-10T12:33:40.472Z,3.30
2019-03-10T12:36:10.035Z,3.70
2019-03-10T12:38:39.569Z,3.37
2019-03-10T12:41:09.232Z,3.53
2019-03-10T12:43:38.522Z,3.80
2019-03-10T12:46:07.873Z,3.20
2019-03-10T12:48:37.339Z,3.40
2019-03-10T12:51:06.699Z,2.90
2019-03-10T12:53:36.308Z,2.97
2019-03-10T12:56:06.260Z,2.60
2019-03-10T12:58:35.561Z,3.30
2019-03-10T13:01:06.598Z,2.03
2019-03-10T13:03:34.758Z,2.37
2019-03-10T13:06:04.257Z,4.23
2019-03-10T13:53:56.631Z,53.70
2019-03-10T13:56:26.206Z,42.20
2019-03-10T13:58:55.563Z,994.20
2019-03-10T14:01:24.839Z,872.75
2019-03-10T14:03:54.467Z,761.07
2019-03-10T14:06:24.076Z,658.67
2019-03-10T14:08:53.354Z,999.90
2019-03-10T14:11:22.852Z,999.90
2019-03-10T14:13:52.131Z,999.90
2019-03-10T14:16:21.460Z,950.70
2019-03-10T14:18:51.145Z,677.10
2019-03-10T14:21:20.446Z,697.60
2019-03-10T14:23:49.739Z,823.60
2019-03-10T14:26:19.015Z,446.37
2019-03-10T14:28:48.407Z,160.40
2019-03-10T14:41:39.159Z,0.83
2019-03-10T14:44:09.058Z,0.87
2019-03-10T14:46:38.340Z,1.17
2019-03-10T14:49:07.642Z,0.80
2019-03-10T14:51:36.899Z,1.10
2019-03-10T14:54:06.189Z,1.10
2019-03-10T14:56:35.454Z,1.10
2019-03-10T14:59:04.858Z,1.03
2019-03-10T15:01:34.228Z,0.97
2019-03-10T15:04:03.686Z,1.10
2019-03-10T15:06:33.270Z,1.30
2019-03-10T15:09:02.539Z,0.90
2019-03-10T15:11:31.814Z,1.50
2019-03-10T15:14:01.611Z,1.10
2019-03-10T15:16:31.008Z,1.60
2019-03-10T15:19:00.707Z,1.50
2019-03-10T15:21:29.967Z,1.30
2019-03-10T15:23:59.612Z,1.50
2019-03-10T15:26:28.963Z,1.40
2019-03-10T15:28:58.432Z,1.67
2019-03-10T15:31:27.797Z,1.57
2019-03-10T15:33:57.399Z,1.90
2019-03-10T15:36:26.971Z,1.57
2019-03-10T15:38:56.606Z,1.53
2019-03-10T15:41:25.893Z,1.50
2019-03-10T15:43:55.441Z,1.57
2019-03-10T15:46:24.767Z,1.50
2019-03-10T15:48:54.062Z,1.63
2019-03-10T15:51:23.647Z,1.33
2019-03-10T15:53:52.951Z,1.20
2019-03-10T15:56:22.570Z,1.13
2019-03-10T15:58:52.555Z,1.30
2019-03-10T16:01:21.885Z,1.00
2019-03-10T16:03:51.473Z,1.97
2019-03-10T16:06:21.652Z,1.77
2019-03-10T16:08:51.215Z,1.20
2019-03-10T16:11:20.503Z,1.10
2019-03-10T16:13:49.881Z,0.90
2019-03-10T16:16:19.232Z,1.07
2019-03-10T16:18:50.899Z,1.10
2019-03-10T16:21:19.951Z,1.20
2019-03-10T16:23:49.274Z,1.33
2019-03-10T16:26:18.875Z,1.30
2019-03-10T16:28:48.163Z,1.60
2019-03-10T16:31:17.504Z,1.60
2019-03-10T16:33:47.137Z,1.50
2019-03-10T16:36:16.999Z,1.47
2019-03-10T16:38:46.316Z,1.20
2019-03-10T16:41:15.827Z,1.70
2019-03-10T16:43:45.389Z,1.47
2019-03-10T16:46:14.757Z,1.20
2019-03-10T16:48:44.461Z,1.40
2019-03-10T16:51:14.001Z,1.53
2019-03-10T16:53:43.283Z,1.07
2019-03-10T16:56:12.554Z,1.53
2019-03-10T16:58:42.283Z,0.90
2019-03-10T17:01:11.882Z,0.80
2019-03-10T17:03:41.161Z,1.10
2019-03-10T17:06:11.352Z,1.30
2019-03-10T17:08:40.736Z,0.90
2019-03-10T17:11:10.011Z,0.90
2019-03-10T17:13:39.348Z,1.27
2019-03-10T17:16:08.683Z,1.20
2019-03-10T17:18:38.150Z,0.97
2019-03-10T17:21:07.747Z,1.17
2019-03-10T17:23:37.353Z,0.87
2019-03-10T17:26:07.003Z,0.90
2019-03-10T17:28:36.568Z,1.10
2019-03-10T17:31:05.896Z,1.10
2019-03-10T17:33:35.473Z,1.00
2019-03-10T17:36:05.544Z,1.23
2019-03-10T17:38:34.985Z,0.97
2019-03-10T17:41:04.647Z,1.20
2019-03-10T17:43:35.538Z,1.27
2019-03-10T17:46:05.171Z,1.00
2019-03-10T17:48:34.553Z,1.50
2019-03-10T17:51:03.847Z,1.43
2019-03-10T17:53:33.148Z,1.07
2019-03-10T17:56:02.440Z,1.50
2019-03-10T17:58:34.009Z,1.40
2019-03-10T18:01:03.552Z,1.03
2019-03-10T18:03:33.036Z,1.30
2019-03-10T18:06:02.358Z,1.83
2019-03-10T18:08:31.619Z,1.50
2019-03-10T18:11:01.194Z,1.73
2019-03-10T18:13:30.570Z,1.20
2019-03-10T18:15:59.882Z,1.30
2019-03-10T18:18:29.525Z,1.47
2019-03-10T18:20:59.110Z,1.50
2019-03-10T18:23:28.354Z,1.70
2019-03-10T18:25:58.242Z,1.30
2019-03-10T18:28:28.044Z,1.93
2019-03-10T18:30:57.313Z,1.50
2019-03-10T18:33:26.571Z,1.50
2019-03-10T18:35:55.858Z,1.60
2019-03-10T18:38:25.480Z,1.50
2019-03-10T18:40:55.203Z,1.33
2019-03-10T18:43:25.249Z,1.63
2019-03-10T18:45:54.627Z,1.40
2019-03-10T18:48:23.945Z,1.17
2019-03-10T18:50:53.214Z,1.50
2019-03-10T18:53:22.514Z,1.40
2019-03-10T18:55:51.760Z,1.63
2019-03-10T18:58:21.495Z,1.60
2019-03-10T19:00:51.042Z,1.80
2019-03-10T19:03:21.304Z,1.63
2019-03-10T19:05:51.243Z,1.20
2019-03-10T19:08:20.535Z,1.40
2019-03-10T19:10:50.134Z,1.60
2019-03-10T19:13:19.415Z,1.50
2019-03-10T19:15:48.955Z,1.63
2019-03-10T19:18:18.267Z,2.00
2019-03-10T19:20:48.083Z,1.90
2019-03-10T19:23:17.344Z,1.60
2019-03-10T19:25:46.628Z,1.60
2019-03-10T19:28:15.890Z,1.70
2019-03-10T19:30:45.272Z,1.57
2019-03-10T19:33:15.003Z,1.60
2019-03-10T19:35:44.582Z,1.60
2019-03-10T19:38:13.871Z,1.50
2019-03-10T19:40:43.147Z,1.50
2019-03-10T19:43:12.463Z,1.97
2019-03-10T19:45:41.918Z,2.20
2019-03-10T19:48:11.834Z,2.23
2019-03-10T19:50:41.207Z,1.37
2019-03-10T19:53:10.490Z,1.53
2019-03-10T19:55:39.840Z,1.50
2019-03-10T19:58:09.431Z,1.30
2019-03-10T20:00:38.688Z,1.53
2019-03-10T20:03:09.735Z,1.50
2019-03-10T20:05:39.119Z,1.50
2019-03-10T20:08:08.420Z,1.30
2019-03-10T20:10:37.960Z,1.50
2019-03-10T20:13:07.564Z,1.77
2019-03-10T20:15:37.509Z,1.97
2019-03-10T20:18:06.855Z,2.00
2019-03-10T20:20:36.507Z,1.83
2019-03-10T20:23:05.783Z,2.00
2019-03-10T20:25:35.080Z,1.80
2019-03-10T20:28:04.711Z,1.87
2019-03-10T20:30:34.227Z,1.70
2019-03-10T20:33:03.706Z,1.47
2019-03-10T20:35:33.109Z,0.90
2019-03-10T20:38:02.547Z,1.20
2019-03-10T20:40:31.903Z,1.37
2019-03-10T20:43:01.189Z,1.53
2019-03-10T20:45:30.723Z,1.90
2019-03-10T20:48:00.436Z,1.27
2019-03-10T20:50:29.761Z,1.60
2019-03-10T20:52:59.483Z,1.17
2019-03-10T20:55:28.863Z,1.33
2019-03-10T20:57:58.484Z,1.47
2019-03-10T21:00:28.010Z,1.23
2019-03-10T21:02:57.275Z,1.60
2019-03-10T21:05:27.574Z,1.07
2019-03-10T21:07:56.953Z,1.33
2019-03-10T21:10:26.754Z,1.10
2019-03-10T21:12:56.105Z,1.47
2019-03-10T21:15:26.553Z,1.47
2019-03-10T21:17:56.538Z,1.93
2019-03-10T21:20:25.987Z,1.40
2019-03-10T21:22:55.247Z,1.80
2019-03-10T21:25:24.551Z,1.87
2019-03-10T21:27:54.386Z,2.23
2019-03-10T21:30:24.221Z,1.67
2019-03-10T21:32:53.600Z,1.87
2019-03-10T21:35:23.219Z,1.90
2019-03-10T21:37:54.351Z,1.67
2019-03-10T21:40:24.424Z,2.30
2019-03-10T21:42:53.807Z,1.60
2019-03-10T21:45:23.644Z,2.80
2019-03-10T21:47:53.107Z,3.13
2019-03-10T21:50:23.071Z,2.57
2019-03-10T21:52:52.473Z,3.47
2019-03-10T21:55:22.013Z,5.73
2019-03-10T21:57:51.683Z,8.10
2019-03-10T22:00:21.304Z,7.07
2019-03-10T22:02:50.791Z,6.80
2019-03-10T22:05:20.236Z,4.23
2019-03-10T22:07:49.677Z,5.47
2019-03-10T22:10:27.027Z,4.23
2019-03-10T22:12:49.948Z,3.17
2019-03-10T22:15:19.826Z,3.40
2019-03-10T22:17:49.706Z,3.67
2019-03-10T22:20:19.134Z,3.20
2019-03-10T22:22:52.819Z,3.40
2019-03-10T22:25:19.929Z,4.10
2019-03-10T22:27:49.195Z,4.13
2019-03-10T22:30:18.871Z,4.27
2019-03-10T22:32:48.560Z,3.97
2019-03-10T22:35:18.091Z,3.63
2019-03-10T22:37:47.790Z,4.10
2019-03-10T22:40:17.419Z,4.80
2019-03-10T22:42:47.224Z,4.13
2019-03-10T22:45:16.590Z,4.03
2019-03-10T22:47:45.943Z,3.73
2019-03-10T22:50:16.079Z,3.90
2019-03-10T22:52:45.876Z,3.67
2019-03-10T22:55:15.850Z,4.17
2019-03-10T22:57:45.225Z,4.00
2019-03-10T23:00:19.711Z,4.00
2019-03-10T23:02:49.046Z,4.57
2019-03-10T23:05:18.680Z,4.10
2019-03-10T23:07:48.179Z,4.10
2019-03-10T23:10:20.839Z,3.80
2019-03-10T23:12:50.213Z,4.00
2019-03-10T23:15:19.654Z,3.50
2019-03-10T23:17:49.363Z,3.97
2019-03-10T23:20:18.729Z,3.40
2019-03-10T23:22:48.403Z,3.40
2019-03-10T23:25:18.298Z,3.67
2019-03-10T23:27:47.658Z,2.90
2019-03-10T23:30:17.067Z,3.07
2019-03-10T23:32:47.215Z,2.97
2019-03-10T23:35:26.318Z,3.00
2019-03-10T23:37:55.619Z,2.77
2019-03-10T23:40:25.268Z,3.27
2019-03-10T23:42:57.327Z,2.50
2019-03-10T23:45:27.050Z,3.30
2019-03-10T23:47:56.447Z,3.00
2019-03-10T23:50:25.791Z,3.40
2019-03-10T23:52:55.551Z,2.73
2019-03-10T23:55:26.191Z,3.13
2019-03-10T23:57:55.512Z,3.17
